Time;durP1;ratioP1;P1;durP2;ratioP2;P2;SDS_P1;SDS_P2;PMS_P1;PMS_P2;Temp;Humidity;BMP_temperature;BMP_pressure;BME280_temperature;BME280_humidity;BME280_pressure;Samples;Min_cycle;Max_cycle;Signal;HPM_P1;HPM_P2
2022/06/05 00:00:39;;;;;;;8.55;5.70;;;11.90;99.90;;;;;;4948683;28;20090;-75
2022/06/05 00:03:11;;;;;;;6.47;5.88;;;11.90;99.90;;;;;;4948027;28;20062;-75
2022/06/05 00:06:08;;;;;;;11.15;6.80;;;11.90;99.90;;;;;;4948300;28;20054;-76
2022/06/05 00:08:41;;;;;;;;;;;11.90;99.90;;;;;;4943366;28;20070;-75
2022/06/05 00:11:10;;;;;;;8.52;6.32;;;12.00;99.90;;;;;;4948205;28;19986;-75
2022/06/05 00:13:54;;;;;;;7.07;5.88;;;12.00;99.90;;;;;;4948755;28;20086;-75
2022/06/05 00:16:26;;;;;;;10.98;6.95;;;12.00;99.90;;;;;;4947361;28;20050;-76
2022/06/05 00:18:52;;;;;;;8.27;6.47;;;12.10;99.90;;;;;;4948639;28;20065;-75
2022/06/05 00:21:18;;;;;;;9.00;6.90;;;12.10;99.90;;;;;;4964661;28;20493;-75
2022/06/05 00:23:44;;;;;;;7.68;6.28;;;12.10;99.90;;;;;;4942577;28;20059;-75
2022/06/05 00:26:26;;;;;;;10.35;7.60;;;12.10;99.90;;;;;;4948281;28;20460;-75
2022/06/05 00:29:10;;;;;;;10.18;6.05;;;12.10;99.90;;;;;;4963721;28;20063;-74
2022/06/05 00:32:02;;;;;;;8.90;6.00;;;12.20;99.90;;;;;;4948382;29;20043;-75
2022/06/05 00:34:28;;;;;;;9.48;6.93;;;12.20;99.90;;;;;;4931663;28;20066;-75
2022/06/05 00:37:29;;;;;;;9.32;6.70;;;12.20;99.90;;;;;;4948111;28;20047;-75
2022/06/05 00:40:13;;;;;;;12.10;6.90;;;12.20;99.90;;;;;;4950071;28;20458;-75
2022/06/05 00:42:39;;;;;;;10.30;7.15;;;12.20;99.90;;;;;;4941561;28;20398;-75
2022/06/05 00:45:13;;;;;;;8.10;7.10;;;12.20;99.90;;;;;;4958645;28;20059;-75
2022/06/05 00:47:41;;;;;;;9.68;7.30;;;12.20;99.90;;;;;;4948239;29;20039;-75
2022/06/05 00:50:14;;;;;;;7.70;6.68;;;12.20;99.90;;;;;;4947661;28;20055;-74
2022/06/05 00:52:42;;;;;;;12.60;7.63;;;12.20;99.90;;;;;;4948312;28;20075;-75
2022/06/05 00:55:09;;;;;;;10.07;7.28;;;12.20;99.90;;;;;;4947893;28;20047;-75
2022/06/05 00:57:36;;;;;;;10.25;7.15;;;12.30;99.90;;;;;;4947418;28;20066;-75
2022/06/05 01:00:13;;;;;;;9.93;6.75;;;12.30;99.90;;;;;;4963974;28;20059;-76
2022/06/05 01:02:42;;;;;;;9.85;6.82;;;12.30;99.90;;;;;;4963490;28;20046;-76
2022/06/05 01:05:09;;;;;;;9.85;6.95;;;12.30;99.90;;;;;;4963408;28;20413;-75
2022/06/05 01:07:35;;;;;;;7.82;6.70;;;12.30;99.90;;;;;;4946510;28;20053;-75
2022/06/05 01:10:01;;;;;;;10.45;6.38;;;12.30;99.90;;;;;;4946566;28;20043;-74
2022/06/05 01:12:37;;;;;;;8.68;6.10;;;12.30;99.90;;;;;;4947977;28;20057;-74
2022/06/05 01:15:11;;;;;;;9.32;6.38;;;12.30;99.90;;;;;;4947091;28;20082;-75
2022/06/05 01:17:40;;;;;;;8.90;6.45;;;12.30;99.90;;;;;;4946995;28;20059;-74
2022/06/05 01:20:18;;;;;;;10.60;5.80;;;12.30;99.90;;;;;;4947721;28;20043;-75
2022/06/05 01:22:56;;;;;;;10.50;5.90;;;12.30;99.90;;;;;;4946599;28;20135;-76
2022/06/05 01:25:49;;;;;;;8.88;6.22;;;12.30;99.90;;;;;;4961707;28;20051;-75
2022/06/05 01:28:23;;;;;;;8.57;6.10;;;12.30;99.90;;;;;;4946639;29;20389;-76
2022/06/05 01:30:52;;;;;;;8.30;5.45;;;12.30;99.90;;;;;;4945712;29;20047;-75
2022/06/05 01:33:26;;;;;;;9.40;6.22;;;12.30;99.90;;;;;;4963370;28;20055;-75
2022/06/05 01:35:58;;;;;;;8.60;5.93;;;12.40;99.90;;;;;;4944070;28;20087;-75
2022/06/05 01:38:42;;;;;;;6.80;5.78;;;12.40;99.90;;;;;;4963735;28;20058;-75
2022/06/05 01:41:43;;;;;;;8.50;5.70;;;12.40;99.90;;;;;;4946627;28;20039;-75
2022/06/05 01:44:14;;;;;;;8.00;5.03;;;12.40;99.90;;;;;;4935634;29;20063;-75
2022/06/05 01:46:39;;;;;;;7.50;4.68;;;12.40;99.90;;;;;;4945740;28;20094;-75
2022/06/05 01:49:11;;;;;;;8.80;5.72;;;12.40;99.90;;;;;;4946765;28;20044;-76
2022/06/05 01:51:48;;;;;;;7.53;5.07;;;12.40;99.90;;;;;;4944406;28;20448;-76
2022/06/05 01:54:23;;;;;;;8.85;5.30;;;12.40;99.90;;;;;;4931238;29;20051;-76
2022/06/05 01:56:53;;;;;;;7.93;6.15;;;12.40;99.90;;;;;;4944690;28;20051;-76
2022/06/05 01:59:40;;;;;;;6.90;4.93;;;12.40;99.90;;;;;;4963100;28;20071;-76
2022/06/05 02:02:12;;;;;;;7.63;5.20;;;12.50;99.90;;;;;;4963653;28;20396;-76
2022/06/05 02:04:46;;;;;;;9.93;6.00;;;12.40;99.90;;;;;;4956000;28;20078;-76
2022/06/05 02:07:22;;;;;;;10.30;5.32;;;12.40;99.90;;;;;;4963944;28;20053;-76
2022/06/05 02:09:55;;;;;;;8.68;5.20;;;12.40;99.90;;;;;;4945786;28;20397;-76
2022/06/05 02:12:22;;;;;;;9.90;5.28;;;12.40;99.90;;;;;;4940530;28;20560;-75
2022/06/05 02:14:48;;;;;;;9.50;4.97;;;12.40;99.90;;;;;;4945076;29;20062;-76
2022/06/05 02:17:15;;;;;;;7.38;5.38;;;12.40;99.90;;;;;;4948125;28;20044;-76
2022/06/05 02:19:41;;;;;;;9.63;5.15;;;12.40;99.90;;;;;;4945818;28;20411;-77
2022/06/05 02:22:19;;;;;;;10.13;6.20;;;12.40;99.90;;;;;;4946248;28;20043;-75
2022/06/05 02:24:45;;;;;;;7.82;5.68;;;12.50;99.90;;;;;;4961689;28;20067;-76
2022/06/05 02:27:11;;;;;;;9.60;5.55;;;12.40;99.90;;;;;;4946951;29;20158;-76
2022/06/05 02:29:37;;;;;;;9.50;5.97;;;12.40;99.90;;;;;;4944540;28;20048;-76
2022/06/05 02:32:12;;;;;;;7.63;5.65;;;12.40;99.90;;;;;;4924891;29;20054;-76
2022/06/05 02:34:44;;;;;;;10.75;6.18;;;12.40;99.90;;;;;;4944998;28;20478;-76
2022/06/05 02:37:34;;;;;;;13.32;6.82;;;12.40;99.90;;;;;;4966712;28;20043;-76
2022/06/05 02:40:22;;;;;;;9.70;6.18;;;12.40;99.90;;;;;;4949245;28;20126;-76
2022/06/05 02:43:06;;;;;;;9.93;6.28;;;12.40;99.90;;;;;;4964707;28;20091;-76
2022/06/05 02:46:09;;;;;;;10.15;6.47;;;12.40;99.90;;;;;;4948810;28;20189;-74
2022/06/05 02:48:43;;;;;;;9.93;7.18;;;12.40;99.90;;;;;;4965316;28;20094;-75
2022/06/05 02:51:20;;;;;;;11.75;7.18;;;12.40;99.90;;;;;;4950611;28;20043;-75
2022/06/05 02:53:48;;;;;;;11.55;6.85;;;12.40;99.90;;;;;;4934177;29;20063;-75
2022/06/05 02:56:14;;;;;;;10.02;7.18;;;12.40;99.90;;;;;;4949773;29;20050;-75
2022/06/05 02:58:40;;;;;;;9.73;6.70;;;12.40;99.90;;;;;;4926045;29;20047;-75
2022/06/05 03:03:50;;;;;;;12.65;7.95;;;12.40;99.90;;;;;;4961975;28;20102;-75
2022/06/05 03:06:15;;;;;;;10.43;8.10;;;12.40;99.90;;;;;;4925247;29;20142;-75
2022/06/05 03:08:41;;;;;;;8.90;7.65;;;12.40;99.90;;;;;;4947850;28;20043;-76
2022/06/05 03:11:07;;;;;;;10.98;8.05;;;12.40;99.90;;;;;;4950233;28;20043;-75
2022/06/05 03:13:33;;;;;;;10.25;8.00;;;12.40;99.90;;;;;;4949466;28;20058;-76
2022/06/05 03:15:59;;;;;;;11.20;7.72;;;12.40;99.90;;;;;;4964312;28;20158;-75
2022/06/05 03:18:25;;;;;;;11.40;7.70;;;12.40;99.90;;;;;;4934596;29;20134;-75
2022/06/05 03:20:56;;;;;;;9.55;7.60;;;12.40;99.90;;;;;;4943678;28;20070;-75
2022/06/05 03:23:22;;;;;;;9.93;7.78;;;12.40;99.90;;;;;;4966536;28;20043;-75
2022/06/05 03:25:47;;;;;;;11.15;7.68;;;12.40;99.90;;;;;;4932599;29;20046;-74
2022/06/05 03:28:13;;;;;;;9.23;7.60;;;12.40;99.90;;;;;;4956908;28;20047;-75
2022/06/05 03:30:41;;;;;;;14.95;8.45;;;12.40;99.90;;;;;;4949770;29;20074;-76
2022/06/05 03:33:08;;;;;;;11.13;7.25;;;12.40;99.90;;;;;;4965744;28;20051;-75
2022/06/05 03:35:42;;;;;;;14.60;8.70;;;12.50;99.90;;;;;;4964009;28;20055;-75
2022/06/05 03:38:09;;;;;;;15.07;8.43;;;12.50;99.90;;;;;;4942644;28;20054;-75
2022/06/05 03:40:38;;;;;;;11.77;8.30;;;12.50;99.90;;;;;;4948590;28;20087;-74
2022/06/05 03:43:04;;;;;;;14.43;9.75;;;12.50;99.90;;;;;;4948801;28;20236;-75
2022/06/05 03:45:29;;;;;;;12.35;9.00;;;12.50;99.90;;;;;;4947588;28;20122;-74
2022/06/05 03:47:55;;;;;;;13.98;9.35;;;12.50;99.90;;;;;;4938453;29;20405;-74
2022/06/05 03:50:21;;;;;;;11.50;8.73;;;12.50;99.90;;;;;;4949034;28;20948;-75
2022/06/05 03:52:47;;;;;;;12.00;8.27;;;12.50;99.90;;;;;;4948952;28;20059;-75
2022/06/05 03:55:16;;;;;;;12.40;9.00;;;12.50;99.90;;;;;;4948180;28;20047;-75
2022/06/05 03:57:42;;;;;;;11.85;9.10;;;12.50;99.90;;;;;;4948881;28;20055;-76
2022/06/05 04:00:09;;;;;;;13.05;8.75;;;12.50;99.90;;;;;;4923903;28;20415;-76
2022/06/05 04:02:35;;;;;;;10.80;8.63;;;12.60;99.90;;;;;;4947126;28;20054;-75
2022/06/05 04:05:04;;;;;;;13.73;8.93;;;12.60;99.90;;;;;;4946985;29;20567;-75
2022/06/05 04:07:30;;;;;;;12.55;8.45;;;12.60;99.90;;;;;;4923600;28;20109;-75
2022/06/05 04:09:55;;;;;;;15.07;9.57;;;12.60;99.90;;;;;;4949683;29;20059;-75
2022/06/05 04:12:21;;;;;;;11.57;8.77;;;12.70;99.90;;;;;;4964409;28;20121;-75
2022/06/05 04:14:47;;;;;;;11.18;8.75;;;12.70;99.90;;;;;;4963856;28;20054;-75
2022/06/05 04:17:13;;;;;;;9.63;8.00;;;12.70;99.90;;;;;;4955613;28;20043;-76
2022/06/05 04:19:38;;;;;;;10.13;7.80;;;12.80;99.90;;;;;;4916412;29;20426;-75
2022/06/05 04:22:04;;;;;;;11.70;8.52;;;12.80;99.90;;;;;;4943504;28;20150;-75
2022/06/05 04:24:30;;;;;;;14.95;8.35;;;12.80;99.90;;;;;;4957714;28;20054;-75
2022/06/05 04:26:56;;;;;;;15.07;9.55;;;12.90;99.90;;;;;;4939475;29;20130;-75
2022/06/05 04:29:22;;;;;;;12.75;8.65;;;12.90;99.90;;;;;;4947679;28;20142;-76
2022/06/05 04:31:49;;;;;;;11.27;9.15;;;13.00;99.90;;;;;;4939667;29;20078;-76
2022/06/05 04:34:19;;;;;;;15.63;9.65;;;13.00;99.90;;;;;;4946731;28;20517;-76
2022/06/05 04:36:45;;;;;;;15.60;10.68;;;13.00;99.90;;;;;;4955982;28;20066;-77
2022/06/05 04:39:12;;;;;;;15.35;11.70;;;13.10;99.90;;;;;;4941453;28;20047;-76
2022/06/05 04:41:39;;;;;;;14.80;10.80;;;13.10;99.90;;;;;;4941760;28;20053;-76
2022/06/05 04:44:06;;;;;;;17.00;11.25;;;13.10;99.90;;;;;;4946016;28;20067;-76
2022/06/05 04:46:37;;;;;;;18.05;11.10;;;13.10;99.90;;;;;;4946971;28;20928;-76
2022/06/05 04:49:06;;;;;;;12.95;9.90;;;13.20;99.90;;;;;;4947506;28;20568;-76
2022/06/05 04:51:33;;;;;;;13.52;9.52;;;13.20;99.90;;;;;;4947719;28;20051;-76
2022/06/05 04:54:01;;;;;;;13.57;9.35;;;13.20;99.90;;;;;;4948182;28;20098;-76
2022/06/05 04:56:28;;;;;;;12.77;8.23;;;13.20;99.90;;;;;;4947051;28;20043;-76
2022/06/05 04:58:55;;;;;;;11.18;8.90;;;13.30;99.90;;;;;;4963022;28;20613;-75
2022/06/05 05:01:25;;;;;;;13.98;8.43;;;13.30;99.90;;;;;;4962656;28;20151;-76
2022/06/05 05:03:54;;;;;;;12.10;8.48;;;13.30;99.90;;;;;;4946381;29;20049;-76
2022/06/05 05:06:20;;;;;;;13.15;8.20;;;13.40;99.90;;;;;;4963699;28;20142;-76
2022/06/05 05:08:46;;;;;;;10.80;7.78;;;13.50;99.90;;;;;;4941149;28;20051;-76
2022/06/05 05:11:12;;;;;;;9.75;7.22;;;13.50;99.90;;;;;;4947214;28;20047;-75
2022/06/05 05:13:37;;;;;;;11.27;8.10;;;13.60;99.90;;;;;;4922344;28;20547;-75
2022/06/05 05:16:03;;;;;;;10.13;7.65;;;13.60;99.90;;;;;;4921659;29;20066;-75
2022/06/05 05:18:29;;;;;;;13.05;7.72;;;13.70;99.90;;;;;;4961846;28;20371;-76
2022/06/05 05:21:04;;;;;;;10.57;7.85;;;13.80;99.90;;;;;;4946924;28;20051;-75
2022/06/05 05:23:29;;;;;;;10.93;7.25;;;13.90;99.90;;;;;;4944858;28;20102;-76
2022/06/05 05:25:55;;;;;;;12.10;6.82;;;14.00;99.90;;;;;;4946720;28;20090;-75
2022/06/05 05:28:22;;;;;;;9.70;7.25;;;14.10;99.90;;;;;;4962976;28;20118;-75
2022/06/05 05:30:47;;;;;;;11.55;8.23;;;14.10;99.90;;;;;;4946386;28;20137;-75
2022/06/05 05:33:14;;;;;;;10.63;7.25;;;14.20;99.90;;;;;;4946932;29;20130;-75
2022/06/05 05:35:40;;;;;;;10.15;7.32;;;14.30;99.90;;;;;;4961755;28;20047;-75
2022/06/05 05:38:06;;;;;;;9.68;7.00;;;14.30;99.90;;;;;;4939869;29;20101;-75
2022/06/05 05:43:15;;;;;;;11.68;7.68;;;14.40;99.90;;;;;;4928841;29;20170;-75
2022/06/05 05:45:41;;;;;;;10.85;7.22;;;14.50;99.90;;;;;;4962165;28;20540;-80
2022/06/05 05:48:07;;;;;;;10.75;7.60;;;14.60;99.90;;;;;;4946740;28;20154;-79
2022/06/05 05:50:33;;;;;;;10.80;7.25;;;14.60;99.90;;;;;;4915709;28;20062;-76
2022/06/05 05:52:59;;;;;;;10.93;7.43;;;14.70;99.90;;;;;;4929822;29;20055;-76
2022/06/05 05:55:24;;;;;;;9.68;6.80;;;14.80;99.90;;;;;;4945866;28;20068;-76
2022/06/05 05:57:50;;;;;;;11.93;6.82;;;14.80;99.90;;;;;;4940451;28;20062;-77
2022/06/05 06:00:18;;;;;;;14.25;7.78;;;14.90;99.90;;;;;;4938209;29;20059;-75
2022/06/05 06:02:44;;;;;;;10.43;6.95;;;15.00;99.90;;;;;;4945639;28;20937;-76
2022/06/05 06:05:16;;;;;;;12.00;7.32;;;15.00;99.90;;;;;;4960750;28;20871;-76
2022/06/05 06:07:42;;;;;;;10.30;7.05;;;15.00;99.90;;;;;;4947096;28;20047;-76
2022/06/05 06:10:08;;;;;;;9.40;7.22;;;15.10;99.90;;;;;;4946910;28;20090;-75
2022/06/05 06:12:34;;;;;;;14.95;7.88;;;15.10;99.90;;;;;;4950889;29;20133;-78
2022/06/05 06:15:00;;;;;;;11.90;8.10;;;15.20;99.90;;;;;;4948798;28;20515;-77
2022/06/05 06:17:26;;;;;;;9.77;6.68;;;15.30;99.90;;;;;;4951606;29;20051;-76
2022/06/05 06:19:51;;;;;;;10.18;6.50;;;15.30;99.90;;;;;;4949379;28;20106;-78
2022/06/05 06:22:18;;;;;;;9.65;7.28;;;15.40;99.90;;;;;;4941900;29;20058;-72
2022/06/05 06:24:44;;;;;;;11.18;7.00;;;15.50;99.90;;;;;;4948120;28;20615;-76
2022/06/05 06:27:10;;;;;;;10.00;6.57;;;15.50;99.90;;;;;;4950673;28;20051;-73
2022/06/05 06:29:36;;;;;;;8.23;7.15;;;15.50;99.90;;;;;;4939128;29;20043;-77
2022/06/05 06:32:02;;;;;;;8.07;6.38;;;15.60;99.90;;;;;;4965272;28;20083;-73
2022/06/05 06:34:28;;;;;;;10.00;6.65;;;15.60;99.90;;;;;;4963966;28;20055;-76
2022/06/05 06:36:54;;;;;;;12.73;6.82;;;15.60;99.90;;;;;;4959880;28;20051;-76
2022/06/05 06:39:20;;;;;;;8.38;6.22;;;15.70;99.90;;;;;;4942467;28;20039;-75
2022/06/05 06:41:46;;;;;;;9.38;6.80;;;15.70;99.90;;;;;;4944387;28;20055;-77
2022/06/05 06:44:12;;;;;;;10.65;6.82;;;15.80;99.90;;;;;;4947976;28;20051;-75
2022/06/05 06:46:38;;;;;;;8.93;6.10;;;15.80;99.90;;;;;;4949165;28;20053;-75
2022/06/05 06:49:04;;;;;;;10.80;6.90;;;15.90;99.90;;;;;;4947237;28;20102;-76
2022/06/05 06:51:30;;;;;;;8.32;6.35;;;15.90;99.90;;;;;;4947851;28;20058;-77
2022/06/05 06:53:56;;;;;;;13.80;6.82;;;15.90;99.90;;;;;;4946462;28;20042;-78
2022/06/05 06:56:26;;;;;;;7.85;6.57;;;15.90;99.90;;;;;;4948397;28;20048;-77
2022/06/05 06:58:52;;;;;;;9.32;6.90;;;16.00;99.90;;;;;;4943922;28;20067;-77
2022/06/05 07:01:18;;;;;;;8.43;6.28;;;16.00;99.90;;;;;;4927494;29;20051;-77
2022/06/05 07:03:44;;;;;;;9.00;6.82;;;16.00;99.90;;;;;;4947437;29;20063;-74
2022/06/05 07:06:12;;;;;;;9.90;6.90;;;16.10;99.90;;;;;;4947294;28;20807;-75
2022/06/05 07:08:38;;;;;;;8.05;6.85;;;16.10;99.90;;;;;;4963979;28;20061;-77
2022/06/05 07:11:08;;;;;;;12.48;7.25;;;16.20;99.90;;;;;;4958754;28;20097;-76
2022/06/05 07:13:35;;;;;;;10.23;6.30;;;16.20;99.90;;;;;;4944996;28;20050;-76
2022/06/05 07:16:01;;;;;;;10.82;7.28;;;16.30;99.90;;;;;;4946768;28;20043;-77
2022/06/05 07:18:26;;;;;;;11.40;7.03;;;16.40;99.90;;;;;;4947389;28;20054;-77
2022/06/05 07:20:52;;;;;;;8.85;6.45;;;16.40;99.90;;;;;;4964309;28;20055;-76
2022/06/05 07:23:18;;;;;;;8.55;6.80;;;16.50;99.90;;;;;;4947782;28;20058;-77
2022/06/05 07:25:49;;;;;;;10.00;6.75;;;16.60;99.90;;;;;;4942372;28;20214;-77
2022/06/05 07:28:16;;;;;;;11.50;6.55;;;16.70;99.90;;;;;;4960014;28;20054;-78
2022/06/05 07:30:46;;;;;;;10.88;6.70;;;16.80;99.90;;;;;;4963602;28;20500;-77
2022/06/05 07:33:13;;;;;;;9.98;7.15;;;17.00;99.90;;;;;;4964462;28;20083;-76
2022/06/05 07:35:38;;;;;;;11.38;7.25;;;17.10;99.90;;;;;;4948708;28;20051;-75
2022/06/05 07:38:04;;;;;;;8.50;6.55;;;17.20;99.90;;;;;;4962884;28;20063;-76
2022/06/05 07:40:30;;;;;;;9.38;6.70;;;17.30;99.90;;;;;;4949743;28;20051;-75
2022/06/05 07:42:55;;;;;;;9.57;6.85;;;17.50;99.90;;;;;;4932076;29;20043;-75
2022/06/05 07:45:21;;;;;;;10.45;6.50;;;17.70;99.90;;;;;;4954401;28;20360;-75
2022/06/05 07:47:47;;;;;;;9.45;6.15;;;17.90;99.90;;;;;;4948287;28;20051;-75
2022/06/05 07:50:14;;;;;;;7.05;5.80;;;18.00;99.90;;;;;;4964093;28;20062;-75
2022/06/05 07:55:25;;;;;;;7.10;5.65;;;18.40;99.90;;;;;;4945217;28;20055;-75
2022/06/05 07:57:51;;;;;;;9.02;6.03;;;18.50;99.90;;;;;;4933062;29;20051;-75
2022/06/05 08:00:17;;;;;;;7.65;5.72;;;18.60;99.90;;;;;;4943602;28;20666;-76
2022/06/05 08:02:43;;;;;;;8.05;5.78;;;18.70;99.90;;;;;;4944572;28;20059;-76
2022/06/05 08:05:09;;;;;;;7.82;5.65;;;18.80;99.90;;;;;;4944718;29;20690;-75
2022/06/05 08:07:36;;;;;;;7.88;5.80;;;18.90;99.90;;;;;;4959997;28;20501;-76
2022/06/05 08:10:04;;;;;;;8.05;6.18;;;18.90;99.90;;;;;;4946518;29;20109;-76
2022/06/05 08:12:32;;;;;;;6.57;5.65;;;18.90;99.90;;;;;;4939653;28;20048;-76
2022/06/05 08:15:00;;;;;;;6.43;5.43;;;18.90;99.90;;;;;;4943847;28;20054;-74
2022/06/05 08:17:30;;;;;;;10.05;5.90;;;18.90;99.90;;;;;;4946245;28;20083;-74
2022/06/05 08:19:57;;;;;;;9.35;5.97;;;18.90;99.90;;;;;;4942056;28;20051;-74
2022/06/05 08:22:24;;;;;;;8.52;5.70;;;18.90;99.90;;;;;;4957569;28;20798;-74
2022/06/05 08:24:52;;;;;;;6.93;5.65;;;19.00;99.90;;;;;;4963061;28;20070;-73
2022/06/05 08:27:23;;;;;;;12.77;5.72;;;19.10;99.90;;;;;;4962085;28;20059;-75
2022/06/05 08:29:49;;;;;;;5.88;5.28;;;19.10;99.90;;;;;;4944730;28;20043;-74
2022/06/05 08:32:15;;;;;;;7.13;5.40;;;19.20;99.90;;;;;;4944019;28;20051;-74
2022/06/05 08:34:42;;;;;;;9.75;6.65;;;19.30;99.90;;;;;;4959008;28;20505;-77
2022/06/05 08:42:52;;;;;;;7.65;5.90;;;19.50;99.90;;;;;;4961648;28;20051;-76
2022/06/05 08:45:28;;;;;;;7.07;5.78;;;19.70;99.90;;;;;;4945575;28;20054;-77
2022/06/05 08:47:58;;;;;;;6.53;5.70;;;19.80;99.90;;;;;;4947393;28;20051;-76
2022/06/05 08:50:38;;;;;;;6.82;5.50;;;19.90;99.90;;;;;;4944800;28;20047;-76
2022/06/05 08:53:39;;;;;;;7.13;5.32;;;20.10;99.90;;;;;;4925950;29;20139;-76
2022/06/05 08:56:07;;;;;;;7.45;5.45;;;20.20;99.90;;;;;;4943547;28;20110;-76
2022/06/05 08:58:50;;;;;;;7.88;5.63;;;20.30;99.90;;;;;;4944372;28;20673;-76
2022/06/05 09:01:40;;;;;;;6.68;5.63;;;20.40;99.90;;;;;;4928554;28;20051;-76
2022/06/05 09:04:23;;;;;;;7.53;5.72;;;20.50;99.90;;;;;;4945744;29;20066;-76
2022/06/05 09:06:54;;;;;;;6.55;5.20;;;20.50;99.90;;;;;;4944128;28;20047;-76
2022/06/05 09:09:25;;;;;;;8.30;6.10;;;20.70;99.90;;;;;;4943673;29;20441;-75
2022/06/05 09:12:06;;;;;;;6.32;5.32;;;20.70;99.90;;;;;;4943287;28;20255;-76
2022/06/05 09:14:42;;;;;;;7.18;5.68;;;20.80;99.90;;;;;;4945721;28;20059;-76
2022/06/05 09:17:15;;;;;;;7.60;5.38;;;21.00;99.90;;;;;;4943311;28;20051;-78
2022/06/05 09:19:42;;;;;;;7.53;5.43;;;21.20;99.90;;;;;;4939035;28;20051;-78
2022/06/05 09:22:41;;;;;;;7.85;5.38;;;21.40;99.90;;;;;;4940396;28;20039;-80
2022/06/05 09:25:19;;;;;;;7.43;5.68;;;21.60;99.90;;;;;;4942900;28;20109;-75
2022/06/05 09:28:02;;;;;;;7.38;5.43;;;21.60;99.90;;;;;;4943565;28;20055;-77
2022/06/05 09:30:36;;;;;;;7.03;5.07;;;21.70;99.90;;;;;;4942201;29;20048;-75
2022/06/05 09:33:22;;;;;;;8.30;5.28;;;21.80;99.90;;;;;;4942655;28;20057;-75
2022/06/05 09:35:50;;;;;;;;;;;21.90;99.90;;;;;;4939662;28;20058;-76
2022/06/05 09:38:18;;;;;;;6.40;5.50;;;21.90;99.90;;;;;;4943901;28;20073;-75
2022/06/05 09:41:14;;;;;;;8.57;6.07;;;22.10;99.90;;;;;;4960350;28;20130;-75
2022/06/05 09:44:16;;;;;;;6.53;4.93;;;22.20;99.90;;;;;;4941769;28;20046;-75
2022/06/05 09:46:59;;;;;;;5.68;4.88;;;22.40;99.90;;;;;;4959188;28;20051;-75
2022/06/05 09:49:30;;;;;;;6.32;5.40;;;22.40;99.90;;;;;;4943168;28;20044;-75
2022/06/05 09:52:04;;;;;;;5.80;5.18;;;22.40;99.90;;;;;;4940099;28;20127;-75
2022/06/05 09:54:32;;;;;;;5.68;4.78;;;22.40;99.90;;;;;;4958880;28;20870;-75
2022/06/05 10:00:54;;;;;;;5.65;5.00;;;22.40;99.90;;;;;;4919632;29;20059;-75
2022/06/05 10:03:35;;;;;;;6.70;5.32;;;22.40;99.90;;;;;;4952097;28;20609;-75
2022/06/05 10:06:20;;;;;;;6.10;5.07;;;22.20;99.90;;;;;;4940827;28;20090;-75
2022/06/05 10:08:50;;;;;;;6.03;5.10;;;22.20;99.90;;;;;;4941797;28;20043;-76
2022/06/05 10:11:24;;;;;;;7.50;5.47;;;22.10;99.90;;;;;;4940598;28;20492;-74
2022/06/05 10:14:15;;;;;;;5.68;5.18;;;22.10;99.90;;;;;;4944501;28;20051;-77
2022/06/05 10:16:50;;;;;;;6.20;5.32;;;22.10;99.90;;;;;;4939301;28;20111;-75
2022/06/05 10:19:43;;;;;;;6.87;5.47;;;22.00;99.90;;;;;;4938951;28;20055;-75
2022/06/05 10:22:41;;;;;;;7.07;5.30;;;21.90;99.90;;;;;;4941628;28;20357;-75
2022/06/05 10:25:35;;;;;;;7.78;5.80;;;21.80;99.90;;;;;;4937271;28;20375;-75
2022/06/05 10:28:17;;;;;;;6.30;5.43;;;21.80;99.90;;;;;;4940168;28;20861;-75
2022/06/05 10:30:57;;;;;;;6.45;5.20;;;21.70;99.90;;;;;;4961020;28;20047;-75
2022/06/05 10:33:41;;;;;;;5.32;4.80;;;21.70;99.90;;;;;;4942895;28;20114;-75
2022/06/05 10:36:18;;;;;;;6.47;5.15;;;21.70;99.90;;;;;;4941109;28;20445;-75
2022/06/05 10:39:12;;;;;;;6.60;5.40;;;21.60;99.90;;;;;;4940846;29;20083;-75
2022/06/05 10:41:47;;;;;;;6.75;5.43;;;21.60;99.90;;;;;;4942282;29;20527;-75
2022/06/05 10:44:38;;;;;;;6.57;5.53;;;21.60;99.90;;;;;;4941456;28;20047;-75
2022/06/05 10:47:10;;;;;;;6.45;5.63;;;21.50;99.90;;;;;;4935434;28;20138;-75
2022/06/05 10:50:08;;;;;;;6.00;5.40;;;21.50;99.90;;;;;;4938527;28;20039;-74
2022/06/05 10:52:49;;;;;;;7.30;5.93;;;21.50;99.90;;;;;;4923944;29;20063;-74
2022/06/05 10:55:17;;;;;;;6.38;5.75;;;21.50;99.90;;;;;;4941124;28;20051;-75
2022/06/05 10:58:09;;;;;;;7.28;5.88;;;21.50;99.90;;;;;;4947127;28;20082;-75
2022/06/05 11:00:52;;;;;;;6.32;5.43;;;21.50;99.90;;;;;;4943034;29;20141;-74
2022/06/05 11:03:56;;;;;;;9.68;7.72;;;21.50;99.90;;;;;;4940206;28;20039;-74
2022/06/05 11:06:52;;;;;;;7.53;6.20;;;21.50;99.90;;;;;;4942876;28;20526;-74
2022/06/05 11:09:18;;;;;;;7.70;6.47;;;21.60;99.90;;;;;;4954582;28;20049;-74
2022/06/05 11:14:53;;;;;;;7.60;6.32;;;21.80;99.90;;;;;;4941675;29;20047;-76
2022/06/05 11:17:50;;;;;;;7.00;6.30;;;21.90;99.90;;;;;;4962199;28;20059;-74
2022/06/05 11:20:23;;;;;;;8.55;6.47;;;22.10;99.90;;;;;;4941980;28;20054;-74
2022/06/05 11:23:01;;;;;;;8.00;6.40;;;22.10;99.90;;;;;;4947037;28;20130;-75
2022/06/05 11:25:32;;;;;;;6.78;5.97;;;22.20;99.90;;;;;;4961419;28;20627;-76
2022/06/05 11:27:59;;;;;;;7.35;6.20;;;22.20;99.90;;;;;;4959260;28;20051;-75
2022/06/05 11:30:42;;;;;;;6.78;6.07;;;22.20;99.90;;;;;;4960357;28;20058;-75
2022/06/05 11:33:27;;;;;;;6.47;5.72;;;22.30;99.90;;;;;;4940449;28;20082;-75
2022/06/05 11:36:07;;;;;;;7.88;6.25;;;22.20;99.90;;;;;;4959663;28;20050;-75
2022/06/05 11:38:45;;;;;;;8.73;5.95;;;22.20;99.90;;;;;;4946520;28;20047;-75
2022/06/05 11:41:28;;;;;;;9.45;6.38;;;22.20;99.90;;;;;;4944216;28;20066;-78
2022/06/05 11:44:31;;;;;;;9.52;6.85;;;22.20;99.90;;;;;;4944458;28;20079;-75
2022/06/05 11:47:31;;;;;;;10.50;6.60;;;22.20;99.90;;;;;;4943538;29;20043;-76
2022/06/05 11:50:51;;;;;;;9.43;6.28;;;22.10;99.90;;;;;;4961682;28;20055;-74
2022/06/05 11:53:32;;;;;;;9.43;6.38;;;22.10;99.90;;;;;;4908414;29;20059;-74
2022/06/05 11:56:32;;;;;;;10.75;6.65;;;22.10;99.90;;;;;;4962426;28;20051;-76
2022/06/05 11:59:30;;;;;;;10.05;6.32;;;22.20;99.90;;;;;;4939960;28;20725;-72
2022/06/05 12:02:13;;;;;;;10.70;6.60;;;22.20;99.90;;;;;;4945037;28;20501;-73
2022/06/05 12:05:05;;;;;;;9.82;6.65;;;22.20;99.90;;;;;;4942687;28;20497;-77
2022/06/05 12:07:32;;;;;;;9.57;6.63;;;22.10;99.90;;;;;;4940730;28;20062;-77
2022/06/05 12:10:28;;;;;;;10.82;6.88;;;22.00;99.90;;;;;;4940281;28;20053;-77
2022/06/05 12:13:01;;;;;;;;;;;22.10;99.90;;;;;;4946606;28;20047;-78
2022/06/05 12:15:55;;;;;;;10.10;6.32;;;22.10;99.90;;;;;;4925938;29;19929;-78
2022/06/05 12:18:27;;;;;;;9.85;7.18;;;22.10;99.90;;;;;;4942493;28;20134;-78
2022/06/05 12:21:04;;;;;;;9.30;6.70;;;22.10;99.90;;;;;;4954783;28;20052;-76
2022/06/05 12:24:00;;;;;;;9.80;7.20;;;22.10;99.90;;;;;;4942586;28;20059;-76
2022/06/05 12:26:42;;;;;;;10.02;6.53;;;22.20;99.90;;;;;;4926727;28;20061;-76
2022/06/05 12:29:23;;;;;;;12.20;6.57;;;22.20;99.90;;;;;;4940649;28;20071;-76
2022/06/05 12:32:02;;;;;;;11.25;6.95;;;22.20;99.90;;;;;;4946584;28;20043;-76
2022/06/05 12:34:40;;;;;;;9.70;6.35;;;22.30;99.90;;;;;;4939746;28;20457;-78
2022/06/05 12:37:17;;;;;;;11.48;7.38;;;22.30;99.90;;;;;;4942886;28;20445;-78
2022/06/05 12:39:49;;;;;;;10.30;6.57;;;22.40;99.90;;;;;;4940426;28;20050;-76
2022/06/05 12:42:30;;;;;;;9.35;6.82;;;22.30;99.90;;;;;;4943375;28;20054;-78
2022/06/05 12:45:15;;;;;;;11.20;6.78;;;22.40;99.90;;;;;;4943271;28;20186;-78
2022/06/05 12:47:57;;;;;;;11.85;7.13;;;22.40;99.90;;;;;;4944628;28;20062;-77
2022/06/05 12:50:58;;;;;;;9.93;7.05;;;22.40;99.90;;;;;;4942846;29;20051;-77
2022/06/05 12:53:35;;;;;;;12.70;7.07;;;22.30;99.90;;;;;;4890564;28;20117;-76
2022/06/05 12:56:30;;;;;;;12.98;6.55;;;22.30;99.90;;;;;;4770500;29;20799;-77
2022/06/05 12:59:17;;;;;;;11.88;7.15;;;22.30;99.90;;;;;;4824791;29;20532;-78
2022/06/05 13:01:51;;;;;;;12.18;7.07;;;22.30;99.90;;;;;;4850514;29;20081;-77
2022/06/05 13:04:16;;;;;;;8.90;6.63;;;22.20;99.90;;;;;;4867703;29;20044;-75
2022/06/05 13:07:00;;;;;;;9.30;6.78;;;22.20;99.90;;;;;;4856344;29;20060;-77
2022/06/05 13:09:41;;;;;;;9.02;7.00;;;22.20;99.90;;;;;;4886249;29;20036;-76
2022/06/05 13:12:30;;;;;;;13.23;7.40;;;22.20;99.90;;;;;;4890128;29;20455;-76
2022/06/05 13:14:56;;;;;;;10.52;6.60;;;22.20;99.90;;;;;;4856957;29;20112;-77
2022/06/05 13:17:54;;;;;;;8.52;6.07;;;22.20;99.90;;;;;;4890099;29;20104;-78
2022/06/05 13:20:49;;;;;;;13.27;6.85;;;22.20;99.90;;;;;;4856574;29;20036;-77
2022/06/05 13:23:23;;;;;;;9.18;6.20;;;22.10;99.90;;;;;;4884923;29;20117;-77
2022/06/05 13:25:54;;;;;;;9.20;7.30;;;22.10;99.90;;;;;;4869347;29;20112;-77
2022/06/05 13:28:31;;;;;;;10.60;6.72;;;22.00;99.90;;;;;;4911175;29;20098;-79
2022/06/05 13:31:21;;;;;;;12.55;7.18;;;22.00;99.90;;;;;;4930628;29;20055;-74
2022/06/05 13:34:19;;;;;;;9.77;6.55;;;22.10;99.90;;;;;;4936852;28;20061;-76
2022/06/05 13:36:57;;;;;;;9.93;7.03;;;22.10;99.90;;;;;;4950602;28;20119;-80